Time;durP1;ratioP1;P1;durP2;ratioP2;P2;SDS_P1;SDS_P2;PMS_P1;PMS_P2;Temp;Humidity;BMP_temperature;BMP_pressure;BME280_temperature;BME280_humidity;BME280_pressure;Samples;Min_cycle;Max_cycle;Signal;HPM_P1;HPM_P2
2023/07/13 00:23:16;;;;;;;;;;;;;;;21.10;50.37;99747.19;1086804;47;20365;-82
2023/07/13 00:24:23;;;;;;;;;;;;;;;21.02;50.54;99741.00;1086897;47;19950;-85
2023/07/13 00:25:27;;;;;;;;;;;;;;;20.98;50.55;99750.63;1087096;54;19967;-86
2023/07/13 00:26:28;;;;;;;;;;;;;;;21.02;50.58;99756.44;1086994;54;19950;-87
2023/07/13 00:27:32;;;;;;;;;;;;;;;20.96;50.56;99750.03;1087107;54;19949;-86
2023/07/13 00:28:33;;;;;;;;;;;;;;;20.91;50.48;99747.13;1087092;54;20382;-85
2023/07/13 00:29:37;;;;;;;;;;;;;;;21.03;50.16;99752.66;1087120;47;19973;-85
2023/07/13 00:30:38;;;;;;;;;;;;;;;20.93;50.35;99750.47;1087277;54;19949;-86
2023/07/13 00:31:41;;;;;;;;;;;;;;;20.87;50.09;99746.75;1087119;47;19958;-83
2023/07/13 00:32:42;;;;;;;;;;;;;;;20.94;49.96;99752.13;1087040;47;20002;-85
2023/07/13 00:33:45;;;;;;;;;;;;;;;21.00;49.96;99744.97;1087227;54;19943;-86
2023/07/13 00:34:46;;;;;;;;;;;;;;;21.01;50.06;99752.09;1087148;54;20364;-86
2023/07/13 00:35:47;;;;;;;;;;;;;;;21.06;49.60;99746.00;1087194;54;19948;-86
2023/07/13 00:36:51;;;;;;;;;;;;;;;21.06;49.47;99735.94;1087191;54;19990;-87
2023/07/13 00:37:52;;;;;;;;;;;;;;;20.91;49.44;99740.88;1087165;54;19950;-85
2023/07/13 00:38:58;;;;;;;;;;;;;;;20.95;49.33;99734.78;1087082;47;19943;-84
2023/07/13 00:39:59;;;;;;;;;;;;;;;20.86;49.75;99742.34;1087135;47;19967;-84
2023/07/13 00:41:03;;;;;;;;;;;;;;;20.83;49.81;99731.09;1087003;47;19968;-85
2023/07/13 00:42:04;;;;;;;;;;;;;;;20.86;49.58;99736.09;1087094;47;19943;-87
2023/07/13 00:43:11;;;;;;;;;;;;;;;20.86;49.79;99728.78;1086936;47;19954;-85
2023/07/13 00:44:13;;;;;;;;;;;;;;;20.89;49.59;99732.94;1087221;47;19943;-85
2023/07/13 00:45:32;;;;;;;;;;;;;;;20.84;49.68;99732.78;1087030;54;19942;-84
2023/07/13 00:46:33;;;;;;;;;;;;;;;20.92;49.42;99740.66;1087120;47;19947;-86
2023/07/13 00:47:36;;;;;;;;;;;;;;;20.91;49.43;99744.41;1087097;54;19942;-88
2023/07/13 00:48:38;;;;;;;;;;;;;;;20.83;49.65;99744.69;1087121;54;19994;-86
2023/07/13 00:49:41;;;;;;;;;;;;;;;20.81;49.86;99744.06;1087057;54;19954;-86
2023/07/13 00:50:44;;;;;;;;;;;;;;;20.82;49.97;99737.59;1087180;47;19958;-86
2023/07/13 00:51:46;;;;;;;;;;;;;;;20.85;49.70;99742.59;1086992;54;19942;-83
2023/07/13 00:52:51;;;;;;;;;;;;;;;20.78;49.81;99739.91;1086972;47;19991;-87
2023/07/13 00:53:53;;;;;;;;;;;;;;;20.78;50.32;99744.53;1086975;47;19973;-86
2023/07/13 00:55:00;;;;;;;;;;;;;;;20.77;50.25;99740.13;1087089;54;19954;-83
2023/07/13 00:56:02;;;;;;;;;;;;;;;20.65;50.27;99732.66;1087089;47;20015;-82
2023/07/13 00:57:08;;;;;;;;;;;;;;;20.63;50.89;99740.19;1086993;54;21396;-86
2023/07/13 00:58:13;;;;;;;;;;;;;;;20.62;50.87;99741.22;1091938;39;20246;-85
2023/07/13 00:59:22;;;;;;;;;;;;;;;20.54;51.07;99738.78;1087525;47;20761;-86
2023/07/13 01:00:28;;;;;;;;;;;;;;;20.53;50.98;99737.97;1087656;54;19949;-86
2023/07/13 01:01:34;;;;;;;;;;;;;;;20.60;50.73;99743.31;1087764;47;19947;-87
2023/07/13 01:02:37;;;;;;;;;;;;;;;20.63;50.75;99744.78;1087746;54;19966;-86
2023/07/13 01:03:40;;;;;;;;;;;;;;;20.66;50.60;99739.75;1088123;54;19931;-88
2023/07/13 01:04:43;;;;;;;;;;;;;;;20.70;50.43;99738.25;1087902;47;19943;-87
2023/07/13 01:05:47;;;;;;;;;;;;;;;20.69;50.63;99744.72;1087754;47;19938;-86
2023/07/13 01:06:52;;;;;;;;;;;;;;;20.68;50.78;99744.97;1087858;47;19950;-84
2023/07/13 01:07:53;;;;;;;;;;;;;;;20.66;50.96;99747.91;1087937;47;19938;-84
2023/07/13 01:08:57;;;;;;;;;;;;;;;20.48;51.11;99745.91;1087583;47;19950;-84
2023/07/13 01:10:01;;;;;;;;;;;;;;;20.49;51.53;99746.75;1087440;47;19926;-83
2023/07/13 01:11:04;;;;;;;;;;;;;;;20.35;51.65;99751.41;1087544;47;19927;-83
2023/07/13 01:12:06;;;;;;;;;;;;;;;20.39;51.62;99748.06;1087502;54;19950;-82
2023/07/13 01:13:10;;;;;;;;;;;;;;;20.40;51.63;99743.44;1087010;47;19975;-81
2023/07/13 01:14:11;;;;;;;;;;;;;;;20.38;51.70;99750.97;1087076;47;19966;-83
2023/07/13 01:15:29;;;;;;;;;;;;;;;20.35;51.83;99757.66;1087522;54;19967;-84
2023/07/13 01:16:31;;;;;;;;;;;;;;;20.25;51.90;99762.72;1087248;47;19960;-84
2023/07/13 01:17:35;;;;;;;;;;;;;;;20.28;51.93;99751.44;1087364;54;19939;-83
2023/07/13 01:18:36;;;;;;;;;;;;;;;20.28;51.66;99762.31;1087307;47;19943;-82
2023/07/13 01:20:04;;;;;;;;;;;;;;;20.18;52.26;99768.16;1087440;47;19942;-84
2023/07/13 01:21:13;;;;;;;;;;;;;;;20.18;51.99;99767.34;1087660;47;19949;-84
2023/07/13 01:22:26;;;;;;;;;;;;;;;20.27;52.02;99756.03;1087496;47;19946;-83
2023/07/13 01:23:31;;;;;;;;;;;;;;;20.34;51.76;99760.59;1087491;47;19946;-83
2023/07/13 01:24:35;;;;;;;;;;;;;;;20.28;51.95;99767.72;1087356;47;19942;-84
2023/07/13 01:25:42;;;;;;;;;;;;;;;20.26;51.76;99767.09;1091969;39;20234;-84
2023/07/13 01:26:58;;;;;;;;;;;;;;;20.23;51.84;99770.25;1087490;47;19942;-83
2023/07/13 01:27:59;;;;;;;;;;;;;;;20.23;51.97;99765.66;1087791;47;19950;-83
2023/07/13 01:29:11;;;;;;;;;;;;;;;20.13;52.15;99765.28;1087613;47;19962;-83
2023/07/13 01:36:21;;;;;;;;;;;;;;;20.10;52.57;99768.41;1088437;54;19939;-83
2023/07/13 01:43:05;;;;;;;;;;;;;;;20.00;52.81;99768.88;1088284;54;19915;-83
2023/07/13 01:44:09;;;;;;;;;;;;;;;20.03;52.70;99765.72;1088016;54;19954;-82
2023/07/13 01:47:02;;;;;;;;;;;;;;;20.03;52.70;99765.72;1088110;54;19942;-83
2023/07/13 01:48:03;;;;;;;;;;;;;;;20.03;52.57;99768.44;1088491;54;19935;-84
2023/07/13 01:49:27;;;;;;;;;;;;;;;19.96;53.10;99759.50;1088307;47;19926;-83
2023/07/13 01:50:37;;;;;;;;;;;;;;;20.00;52.74;99766.16;1088322;47;19927;-83
2023/07/13 01:51:41;;;;;;;;;;;;;;;19.88;53.03;99768.72;1088309;47;19938;-84
2023/07/13 01:52:42;;;;;;;;;;;;;;;19.98;52.98;99768.25;1087738;47;19946;-83
2023/07/13 01:53:45;;;;;;;;;;;;;;;19.96;52.73;99770.34;1087487;54;20348;-81
2023/07/13 01:54:46;;;;;;;;;;;;;;;20.02;52.76;99771.38;1087524;54;19945;-83
2023/07/13 01:55:50;;;;;;;;;;;;;;;20.04;52.47;99766.56;1087675;54;19991;-83
2023/07/13 01:56:51;;;;;;;;;;;;;;;20.12;52.23;99770.94;1087847;54;19966;-82
2023/07/13 01:57:55;;;;;;;;;;;;;;;19.97;52.57;99773.91;1087687;47;19943;-82
2023/07/13 01:58:56;;;;;;;;;;;;;;;19.93;52.97;99782.47;1087545;47;19926;-83
2023/07/13 02:00:04;;;;;;;;;;;;;;;19.86;53.30;99773.50;1087411;54;19942;-83
2023/07/13 02:01:16;;;;;;;;;;;;;;;19.80;53.34;99783.28;1087924;54;19947;-83
2023/07/13 02:02:25;;;;;;;;;;;;;;;19.78;53.30;99788.09;1088294;54;19959;-83
2023/07/13 02:03:26;;;;;;;;;;;;;;;19.90;53.30;99782.06;1088121;47;19942;-84
2023/07/13 02:04:32;;;;;;;;;;;;;;;19.87;53.31;99777.03;1088222;47;19943;-83
2023/07/13 02:05:33;;;;;;;;;;;;;;;19.78;53.63;99779.97;1088231;47;19950;-85
2023/07/13 02:06:36;;;;;;;;;;;;;;;19.75;53.26;99776.84;1088295;47;19934;-83
2023/07/13 02:07:37;;;;;;;;;;;;;;;19.69;53.70;99783.94;1087966;54;19927;-82
2023/07/13 02:08:38;;;;;;;;;;;;;;;19.74;53.68;99786.84;1088339;47;19953;-84
2023/07/13 02:09:42;;;;;;;;;;;;;;;19.66;53.74;99781.63;1088254;54;19950;-83
2023/07/13 02:10:43;;;;;;;;;;;;;;;19.78;53.32;99790.81;1088283;47;19974;-83
2023/07/13 02:11:46;;;;;;;;;;;;;;;19.75;53.50;99788.50;1088087;47;20216;-82
2023/07/13 02:12:49;;;;;;;;;;;;;;;19.82;53.09;99793.09;1088170;47;19934;-83
2023/07/13 02:13:52;;;;;;;;;;;;;;;19.84;53.31;99788.31;1088186;54;19947;-83
2023/07/13 02:14:53;;;;;;;;;;;;;;;19.85;53.10;99795.38;1088320;47;19950;-83
2023/07/13 02:15:59;;;;;;;;;;;;;;;19.78;53.36;99793.50;1088245;54;19942;-83
2023/07/13 02:17:01;;;;;;;;;;;;;;;19.86;53.08;99792.50;1088256;46;19931;-82
2023/07/13 02:18:05;;;;;;;;;;;;;;;19.93;53.19;99787.88;1088240;54;19978;-83
2023/07/13 02:19:06;;;;;;;;;;;;;;;19.87;53.13;99793.31;1088422;54;19979;-83
2023/07/13 02:20:10;;;;;;;;;;;;;;;19.95;53.10;99790.38;1088138;47;19998;-86
2023/07/13 02:23:04;;;;;;;;;;;;;;;20.02;52.83;99785.78;1088153;54;19979;-82
2023/07/13 02:24:07;;;;;;;;;;;;;;;19.97;52.64;99788.28;1088175;54;20279;-84
2023/07/13 02:25:11;;;;;;;;;;;;;;;19.98;52.82;99789.97;1087918;46;19967;-82
2023/07/13 02:26:13;;;;;;;;;;;;;;;19.92;52.91;99785.38;1087889;47;19946;-83
2023/07/13 02:27:16;;;;;;;;;;;;;;;19.93;52.95;99787.88;1087845;54;19943;-83
2023/07/13 02:28:17;;;;;;;;;;;;;;;19.90;52.85;99784.75;1087828;47;19943;-83
2023/07/13 02:29:29;;;;;;;;;;;;;;;19.91;53.11;99789.97;1087932;47;20351;-83
2023/07/13 02:30:35;;;;;;;;;;;;;;;19.91;52.98;99794.56;1088353;54;19998;-83
2023/07/13 02:31:44;;;;;;;;;;;;;;;19.92;53.08;99796.25;1088307;47;19951;-82
2023/07/13 02:32:45;;;;;;;;;;;;;;;19.94;52.72;99796.84;1088100;54;19942;-83
2023/07/13 02:33:51;;;;;;;;;;;;;;;19.83;52.97;99800.19;1087927;47;19946;-82
2023/07/13 02:34:57;;;;;;;;;;;;;;;19.88;52.96;99795.00;1087634;47;19945;-82
2023/07/13 02:36:01;;;;;;;;;;;;;;;19.88;52.94;99795.00;1087907;47;19927;-82
2023/07/13 02:37:04;;;;;;;;;;;;;;;19.81;53.23;99797.69;1088027;47;19943;-83
2023/07/13 02:38:08;;;;;;;;;;;;;;;19.82;53.40;99804.78;1087950;47;19950;-85
2023/07/13 02:39:11;;;;;;;;;;;;;;;19.90;53.17;99798.31;1088155;47;19943;-82
2023/07/13 02:40:15;;;;;;;;;;;;;;;19.76;53.33;99798.31;1087972;47;19950;-84
2023/07/13 02:41:16;;;;;;;;;;;;;;;19.66;53.95;99799.78;1087811;54;19943;-83
2023/07/13 02:42:17;;;;;;;;;;;;;;;19.75;53.49;99793.94;1087869;46;19943;-82
2023/07/13 02:43:21;;;;;;;;;;;;;;;19.79;53.24;99808.75;1087958;47;19950;-83
2023/07/13 02:44:30;;;;;;;;;;;;;;;19.67;53.78;99799.56;1087945;47;19943;-83
2023/07/13 02:45:40;;;;;;;;;;;;;;;19.66;53.69;99797.91;1087926;47;19994;-83
2023/07/13 02:46:46;;;;;;;;;;;;;;;19.61;53.89;99803.97;1087990;54;19973;-82
2023/07/13 07:58:44;;;;;;;;;;;;;;;23.40;40.06;99986.84;1087553;54;19942;-87
2023/07/13 07:59:45;;;;;;;;;;;;;;;23.36;39.51;99991.94;1087664;47;19938;-86
2023/07/13 08:00:48;;;;;;;;;;;;;;;23.32;39.43;99988.84;1087596;54;19973;-87
2023/07/13 08:01:50;;;;;;;;;;;;;;;23.35;39.32;99984.81;1087874;54;19927;-86
2023/07/13 08:02:53;;;;;;;;;;;;;;;23.48;38.95;99983.81;1087827;54;19950;-87
2023/07/13 08:03:54;;;;;;;;;;;;;;;23.56;38.94;99982.66;1087313;47;20044;-88
2023/07/13 08:04:57;;;;;;;;;;;;;;;23.71;38.97;99977.59;1087430;54;19942;-87
2023/07/13 08:05:59;;;;;;;;;;;;;;;23.88;38.72;99980.47;1087385;47;19946;-86
2023/07/13 08:07:03;;;;;;;;;;;;;;;24.10;38.61;99986.22;1087484;47;19954;-88
2023/07/13 08:08:04;;;;;;;;;;;;;;;23.99;37.72;99984.34;1087498;47;19957;-87
2023/07/13 08:09:07;;;;;;;;;;;;;;;23.98;36.98;99982.69;1087445;54;20002;-88
2023/07/13 08:10:10;;;;;;;;;;;;;;;23.88;36.87;99982.38;1087326;47;19939;-87
2023/07/13 08:11:11;;;;;;;;;;;;;;;23.73;37.45;99983.66;1087393;47;19943;-87
2023/07/13 08:12:21;;;;;;;;;;;;;;;23.80;37.20;99981.66;1087401;54;19955;-87
2023/07/13 08:13:23;;;;;;;;;;;;;;;23.96;36.89;99973.88;1087307;47;19942;-87
2023/07/13 08:14:35;;;;;;;;;;;;;;;23.89;37.02;99973.13;1087371;47;19946;-86
2023/07/13 08:15:36;;;;;;;;;;;;;;;24.19;36.81;99972.22;1087424;47;19947;-86
2023/07/13 08:17:45;;;;;;;;;;;;;;;24.22;36.94;99977.22;1088135;54;19935;-86
2023/07/13 08:18:46;;;;;;;;;;;;;;;24.38;36.55;99973.78;1087777;47;19931;-86
2023/07/13 08:19:49;;;;;;;;;;;;;;;24.52;36.12;99973.53;1087678;47;19939;-89
2023/07/13 08:22:02;;;;;;;;;;;;;;;24.80;36.33;99977.44;1087633;54;19942;-87
2023/07/13 08:23:02;;;;;;;;;;;;;;;24.75;36.05;99969.97;1087153;47;19942;-88
2023/07/13 08:24:06;;;;;;;;;;;;;;;24.60;35.73;99976.75;1087599;54;19949;-87
2023/07/13 08:25:07;;;;;;;;;;;;;;;24.49;36.34;99971.28;1087935;54;19942;-88
2023/07/13 08:26:12;;;;;;;;;;;;;;;24.54;35.79;99971.41;1096242;39;20196;-87
2023/07/13 08:27:13;;;;;;;;;;;;;;;24.54;35.35;99974.13;1087260;47;19942;-87
2023/07/13 08:28:16;;;;;;;;;;;;;;;24.89;35.07;99965.06;1087411;47;19967;-87
2023/07/13 08:29:17;;;;;;;;;;;;;;;24.76;35.24;99966.16;1087494;54;19927;-89
2023/07/13 08:30:23;;;;;;;;;;;;;;;24.89;35.00;99970.53;1087153;47;19943;-87
2023/07/13 08:31:24;;;;;;;;;;;;;;;25.15;34.94;99960.09;1087468;39;20152;-86
2023/07/13 08:32:27;;;;;;;;;;;;;;;25.11;34.61;99969.88;1087003;54;19979;-87
2023/07/13 08:33:28;;;;;;;;;;;;;;;24.94;34.66;99973.34;1087108;47;19943;-88
2023/07/13 08:34:31;;;;;;;;;;;;;;;25.08;34.50;99969.28;1086894;47;20041;-86
2023/07/13 08:35:32;;;;;;;;;;;;;;;25.41;34.24;99966.09;1086997;54;19973;-88
2023/07/13 08:37:37;;;;;;;;;;;;;;;25.25;34.63;99960.31;1087458;54;19934;-87
2023/07/13 08:38:38;;;;;;;;;;;;;;;25.58;34.32;99957.91;1087291;54;19950;-86
2023/07/13 08:39:41;;;;;;;;;;;;;;;25.74;33.93;99953.53;1086858;47;19945;-87
2023/07/13 08:40:42;;;;;;;;;;;;;;;25.89;33.94;99964.72;1086796;47;19939;-88
2023/07/13 08:41:46;;;;;;;;;;;;;;;25.82;33.08;99962.19;1087150;47;20942;-87
2023/07/13 08:42:50;;;;;;;;;;;;;;;25.91;33.57;99965.31;1087136;47;20836;-86
2023/07/13 08:43:56;;;;;;;;;;;;;;;26.10;33.71;99963.19;1086739;47;20006;-86
2023/07/13 08:45:03;;;;;;;;;;;;;;;25.97;33.23;99967.09;1086452;47;19939;-86
2023/07/13 08:46:12;;;;;;;;;;;;;;;25.96;33.23;99970.06;1087046;47;19945;-86
2023/07/13 08:47:13;;;;;;;;;;;;;;;25.90;33.39;99969.13;1086658;47;19967;-85
2023/07/13 08:48:21;;;;;;;;;;;;;;;25.88;33.40;99965.84;1086831;54;19949;-86
2023/07/13 08:49:23;;;;;;;;;;;;;;;26.04;33.63;99963.34;1086649;47;19938;-85
2023/07/13 08:50:30;;;;;;;;;;;;;;;25.95;33.52;99966.50;1086675;47;19990;-85
2023/07/13 08:51:40;;;;;;;;;;;;;;;25.69;32.98;99963.31;1087332;39;21083;-86
2023/07/13 08:52:44;;;;;;;;;;;;;;;25.91;33.17;99956.28;1086850;47;20010;-85
2023/07/13 08:53:47;;;;;;;;;;;;;;;26.08;32.92;99953.53;1086809;54;19974;-85
2023/07/13 08:54:53;;;;;;;;;;;;;;;26.37;32.90;99956.19;1086885;47;19945;-85
2023/07/13 08:55:57;;;;;;;;;;;;;;;26.29;32.67;99961.00;1086757;54;19949;-84
2023/07/13 08:57:02;;;;;;;;;;;;;;;26.13;33.20;99962.69;1086872;54;19984;-85
2023/07/13 08:58:06;;;;;;;;;;;;;;;26.53;32.69;99959.97;1086795;54;20050;-85
2023/07/13 08:59:13;;;;;;;;;;;;;;;26.13;33.34;99964.59;1086613;47;19938;-86
2023/07/13 09:00:15;;;;;;;;;;;;;;;26.17;33.28;99968.50;1086697;47;19938;-85
2023/07/13 09:01:25;;;;;;;;;;;;;;;26.18;33.46;99972.88;1086930;54;19943;-85
2023/07/13 09:02:27;;;;;;;;;;;;;;;26.06;33.65;99963.94;1086833;47;19938;-86
2023/07/13 09:03:33;;;;;;;;;;;;;;;25.79;34.00;99972.81;1086818;54;20003;-88
2023/07/13 09:04:36;;;;;;;;;;;;;;;25.58;34.01;99968.84;1087016;47;19938;-85
2023/07/13 09:05:41;;;;;;;;;;;;;;;25.63;33.91;99978.00;1087096;47;19966;-88
2023/07/13 09:06:46;;;;;;;;;;;;;;;25.65;33.73;99973.09;1086732;54;19967;-85
2023/07/13 09:08:04;;;;;;;;;;;;;;;25.49;33.98;99963.78;1086881;47;19945;-85
2023/07/13 09:09:09;;;;;;;;;;;;;;;25.83;33.71;99968.47;1087662;39;20630;-85
2023/07/13 09:10:16;;;;;;;;;;;;;;;25.92;33.52;99972.47;1086683;47;20923;-86
2023/07/13 09:11:27;;;;;;;;;;;;;;;26.12;33.09;99962.94;1088564;39;20796;-88
2023/07/13 09:13:39;;;;;;;;;;;;;;;26.65;32.30;99957.09;1087641;54;20016;-86
2023/07/13 09:14:44;;;;;;;;;;;;;;;27.02;32.26;99957.34;1087525;54;19943;-88
2023/07/13 09:15:48;;;;;;;;;;;;;;;27.22;32.21;99964.97;1087584;47;19961;-86
2023/07/13 09:18:03;;;;;;;;;;;;;;;27.45;31.58;99959.44;1087582;54;19931;-86
2023/07/13 09:19:05;;;;;;;;;;;;;;;27.07;31.08;99967.53;1086903;47;19950;-84
2023/07/13 09:20:13;;;;;;;;;;;;;;;26.75;31.65;99965.47;1086733;54;19947;-85
2023/07/13 09:21:15;;;;;;;;;;;;;;;26.62;31.57;99964.78;1087079;47;19938;-85
2023/07/13 09:22:21;;;;;;;;;;;;;;;26.52;31.51;99961.88;1088657;39;20277;-86
2023/07/13 09:23:24;;;;;;;;;;;;;;;26.42;31.86;99965.31;1086795;47;19964;-87
2023/07/13 09:24:29;;;;;;;;;;;;;;;26.43;31.69;99966.97;1086784;54;19938;-86
2023/07/13 09:25:33;;;;;;;;;;;;;;;26.37;31.76;99967.13;1086759;46;19939;-86
2023/07/13 09:26:34;;;;;;;;;;;;;;;26.49;31.50;99965.13;1086607;47;19963;-84
2023/07/13 09:27:41;;;;;;;;;;;;;;;26.14;31.38;99958.06;1086664;47;22433;-83
2023/07/13 09:28:43;;;;;;;;;;;;;;;26.40;31.08;99961.97;1086812;54;19950;-85
2023/07/13 09:29:50;;;;;;;;;;;;;;;26.18;31.29;99958.38;1086742;54;19942;-85
2023/07/13 09:30:55;;;;;;;;;;;;;;;26.03;31.38;99964.41;1086199;54;19999;-88
2023/07/13 09:32:03;;;;;;;;;;;;;;;26.09;31.53;99966.16;1088037;39;21079;-85
2023/07/13 09:33:07;;;;;;;;;;;;;;;25.98;31.77;99963.25;1086437;54;19942;-88
2023/07/13 09:34:11;;;;;;;;;;;;;;;25.97;31.70;99961.59;1086773;47;19958;-83
2023/07/13 09:35:15;;;;;;;;;;;;;;;26.12;31.97;99965.69;1086857;54;19998;-85
2023/07/13 09:36:23;;;;;;;;;;;;;;;26.12;31.91;99963.75;1086803;47;19965;-86
2023/07/13 09:37:28;;;;;;;;;;;;;;;26.36;31.53;99968.22;1087113;54;19950;-85
2023/07/13 09:38:33;;;;;;;;;;;;;;;26.19;31.48;99974.56;1087165;47;20023;-85
2023/07/13 09:39:36;;;;;;;;;;;;;;;26.48;30.96;99968.94;1087064;47;19982;-87
2023/07/13 09:40:49;;;;;;;;;;;;;;;26.42;31.02;99965.31;1087148;54;20005;-86
2023/07/13 09:41:56;;;;;;;;;;;;;;;26.98;30.69;99958.09;1087163;47;19939;-85
2023/07/13 09:42:58;;;;;;;;;;;;;;;27.03;30.05;99969.13;1086839;47;19946;-86
2023/07/13 09:44:02;;;;;;;;;;;;;;;26.77;30.57;99961.44;1086969;47;19939;-84
2023/07/13 09:45:06;;;;;;;;;;;;;;;26.55;30.48;99964.09;1087058;47;19939;-88
2023/07/13 09:46:20;;;;;;;;;;;;;;;26.80;30.00;99964.72;1086838;47;19939;-83
2023/07/13 09:47:29;;;;;;;;;;;;;;;26.67;29.78;99968.66;1087065;47;21135;-86
2023/07/13 09:49:38;;;;;;;;;;;;;;;26.67;29.95;99968.66;1087719;54;19950;-86
2023/07/13 09:50:39;;;;;;;;;;;;;;;27.04;29.62;99965.28;1089908;39;20312;-84
2023/07/13 09:51:44;;;;;;;;;;;;;;;26.82;29.79;99966.16;1086705;54;19942;-85
2023/07/13 09:52:45;;;;;;;;;;;;;;;27.19;29.41;99968.22;1086600;54;19942;-85
2023/07/13 09:53:49;;;;;;;;;;;;;;;27.54;29.50;99958.75;1086663;47;21132;-86
2023/07/13 09:54:51;;;;;;;;;;;;;;;27.58;28.86;99963.72;1086643;47;19942;-86
2023/07/13 09:55:54;;;;;;;;;;;;;;;27.27;28.78;99966.94;1086612;47;19939;-85
2023/07/13 09:56:56;;;;;;;;;;;;;;;27.46;28.71;99959.22;1088385;39;20240;-87
2023/07/13 09:57:59;;;;;;;;;;;;;;;27.16;28.99;99962.44;1087071;47;19951;-84
2023/07/13 09:59:00;;;;;;;;;;;;;;;27.37;28.64;99960.72;1086887;54;21107;-85
2023/07/13 10:00:05;;;;;;;;;;;;;;;27.42;28.78;99952.53;1087331;54;19942;-85
2023/07/13 10:01:06;;;;;;;;;;;;;;;27.36;29.15;99961.81;1087155;54;19934;-84
2023/07/13 10:03:20;;;;;;;;;;;;;;;27.21;29.22;99954.25;1090884;39;20998;-86
2023/07/13 10:04:28;;;;;;;;;;;;;;;27.65;29.27;99956.91;1093815;39;20667;-84
2023/07/13 10:05:39;;;;;;;;;;;;;;;27.70;29.15;99956.13;1087344;47;19938;-85
2023/07/13 10:06:42;;;;;;;;;;;;;;;28.14;28.64;99953.22;1087388;54;19943;-85
2023/07/13 10:07:46;;;;;;;;;;;;;;;28.05;28.67;99963.00;1086991;46;21345;-84
2023/07/13 10:08:48;;;;;;;;;;;;;;;27.54;29.06;99958.75;1087402;54;19967;-84
2023/07/13 10:09:54;;;;;;;;;;;;;;;27.85;28.96;99959.00;1087583;54;19943;-86
2023/07/13 10:10:59;;;;;;;;;;;;;;;27.69;28.90;99957.19;1087707;54;19942;-85
2023/07/13 10:12:02;;;;;;;;;;;;;;;27.96;28.32;99959.09;1087887;47;19938;-85
2023/07/13 10:13:05;;;;;;;;;;;;;;;27.79;28.31;99954.53;1087894;54;19950;-84
2023/07/13 10:14:18;;;;;;;;;;;;;;;28.02;27.88;99960.78;1088036;46;19946;-85
2023/07/13 10:15:20;;;;;;;;;;;;;;;27.89;28.45;99959.31;1088146;54;19966;-85
2023/07/13 10:16:24;;;;;;;;;;;;;;;27.88;28.50;99957.66;1087819;46;19939;-85
2023/07/13 10:17:34;;;;;;;;;;;;;;;27.78;27.68;99961.13;1087984;47;19939;-84
2023/07/13 10:18:43;;;;;;;;;;;;;;;28.02;27.25;99963.53;1087641;47;19942;-85
2023/07/13 10:19:49;;;;;;;;;;;;;;;27.49;27.79;99960.59;1087827;47;20085;-85
2023/07/13 10:20:57;;;;;;;;;;;;;;;27.67;27.66;99964.91;1087632;47;19990;-85
2023/07/13 10:21:59;;;;;;;;;;;;;;;27.62;27.75;99962.09;1087265;54;19943;-85
2023/07/13 10:23:04;;;;;;;;;;;;;;;27.74;27.46;99967.41;1087102;47;19942;-85
2023/07/13 10:24:12;;;;;;;;;;;;;;;27.37;27.85;99964.28;1088337;39;20877;-85
2023/07/13 10:25:20;;;;;;;;;;;;;;;27.76;27.64;99966.06;1087448;46;19938;-87
2023/07/13 10:26:23;;;;;;;;;;;;;;;28.15;27.53;99960.34;1087090;47;19964;-87
2023/07/13 10:27:32;;;;;;;;;;;;;;;28.06;27.56;99959.16;1087187;54;19942;-85
2023/07/13 10:28:37;;;;;;;;;;;;;;;28.24;27.05;99957.13;1087250;46;20047;-83
2023/07/13 10:29:43;;;;;;;;;;;;;;;28.25;27.48;99959.59;1087163;46;19943;-85
2023/07/13 10:30:46;;;;;;;;;;;;;;;28.25;26.85;99956.84;1087071;54;19943;-85
2023/07/13 10:31:50;;;;;;;;;;;;;;;27.98;27.15;99954.16;1087116;47;19958;-85
2023/07/13 10:32:52;;;;;;;;;;;;;;;28.03;27.23;99960.50;1087060;54;19943;-87
2023/07/13 10:33:56;;;;;;;;;;;;;;;28.30;26.90;99951.38;1087338;47;19938;-85
2023/07/13 10:35:00;;;;;;;;;;;;;;;28.35;27.17;99947.81;1087018;54;19968;-84
2023/07/13 10:36:15;;;;;;;;;;;;;;;28.76;26.75;99947.25;1087002;46;19946;-87
2023/07/13 10:37:18;;;;;;;;;;;;;;;28.94;26.21;99945.94;1087454;54;19942;-86
2023/07/13 10:38:27;;;;;;;;;;;;;;;29.16;26.29;99939.41;1087158;54;20047;-88
2023/07/13 10:39:28;;;;;;;;;;;;;;;29.00;26.24;99941.28;1086978;47;19953;-85
2023/07/13 10:40:34;;;;;;;;;;;;;;;28.95;26.62;99953.09;1087016;54;19943;-85
2023/07/13 10:41:39;;;;;;;;;;;;;;;28.71;26.55;99948.06;1086847;47;19990;-84
2023/07/13 10:42:45;;;;;;;;;;;;;;;28.67;26.84;99957.09;1086975;54;19950;-85
2023/07/13 10:43:49;;;;;;;;;;;;;;;28.86;26.44;99951.97;1088292;39;20160;-86
2023/07/13 10:44:52;;;;;;;;;;;;;;;28.92;26.47;99948.13;1086907;47;20836;-87
2023/07/13 10:45:54;;;;;;;;;;;;;;;28.85;26.56;99958.56;1086920;54;19968;-84
2023/07/13 10:46:58;;;;;;;;;;;;;;;28.59;26.47;99952.91;1087004;54;19968;-86
2023/07/13 10:47:59;;;;;;;;;;;;;;;28.53;26.53;99954.81;1087108;54;20014;-85
2023/07/13 10:49:05;;;;;;;;;;;;;;;28.71;26.62;99949.97;1086898;54;20000;-84
2023/07/13 10:50:12;;;;;;;;;;;;;;;28.29;26.60;99957.16;1086945;54;19942;-85
2023/07/13 10:51:21;;;;;;;;;;;;;;;28.20;26.73;99948.56;1086800;54;19948;-85
2023/07/13 10:52:39;;;;;;;;;;;;;;;28.47;26.54;99953.97;1087320;47;19938;-87
2023/07/13 10:53:43;;;;;;;;;;;;;;;29.00;25.87;99939.34;1087122;46;20825;-83
2023/07/13 10:54:46;;;;;;;;;;;;;;;28.82;25.83;99948.94;1086851;47;19964;-86
2023/07/13 10:56:02;;;;;;;;;;;;;;;28.83;26.04;99949.75;1087312;54;19968;-85
2023/07/13 10:57:17;;;;;;;;;;;;;;;28.97;25.94;99945.41;1087088;47;19938;-86
2023/07/13 10:58:22;;;;;;;;;;;;;;;28.63;26.36;99949.38;1087117;46;19938;-86
2023/07/13 10:59:27;;;;;;;;;;;;;;;28.12;27.04;99955.41;1087052;47;19946;-86
2023/07/13 11:00:34;;;;;;;;;;;;;;;28.49;26.83;99945.44;1086911;54;21131;-85
2023/07/13 11:01:47;;;;;;;;;;;;;;;28.47;26.92;99942.16;1086979;54;19950;-85
2023/07/13 11:03:00;;;;;;;;;;;;;;;28.84;26.48;99944.00;1086674;46;20891;-85
2023/07/13 11:04:03;;;;;;;;;;;;;;;28.86;26.24;99943.72;1086721;47;19939;-86
2023/07/13 11:05:20;;;;;;;;;;;;;;;29.11;25.75;99940.22;1086991;54;20000;-85
2023/07/13 11:06:33;;;;;;;;;;;;;;;29.02;25.82;99939.09;1086848;47;19938;-86
2023/07/13 11:07:54;;;;;;;;;;;;;;;28.77;26.06;99946.97;1088854;39;21247;-87
2023/07/13 11:08:55;;;;;;;;;;;;;;;29.02;26.14;99931.66;1087240;47;19939;-85
2023/07/13 11:09:59;;;;;;;;;;;;;;;29.14;26.01;99938.84;1086992;47;20017;-87
2023/07/13 11:11:00;;;;;;;;;;;;;;;28.75;26.79;99938.16;1087075;47;19939;-86
2023/07/13 11:12:09;;;;;;;;;;;;;;;28.09;27.10;99941.38;1087027;47;20025;-84
2023/07/13 11:13:35;;;;;;;;;;;;;;;27.81;27.36;99935.91;1087053;47;19964;-86
2023/07/13 11:14:41;;;;;;;;;;;;;;;27.73;27.49;99928.16;1087313;47;19939;-88
2023/07/13 11:15:47;;;;;;;;;;;;;;;27.93;27.25;99921.16;1086850;54;20706;-87
2023/07/13 11:16:51;;;;;;;;;;;;;;;28.09;26.83;99928.44;1086868;54;19983;-87
2023/07/13 11:17:58;;;;;;;;;;;;;;;28.10;26.96;99916.38;1087603;46;20774;-87
2023/07/13 11:20:21;;;;;;;;;;;;;;;27.93;27.25;99926.66;1087765;54;19946;-87
2023/07/13 11:21:26;;;;;;;;;;;;;;;27.96;27.35;99931.63;1087063;47;19939;-87
2023/07/13 11:22:47;;;;;;;;;;;;;;;27.46;27.73;99922.69;1087172;54;19971;-85
2023/07/13 11:24:01;;;;;;;;;;;;;;;27.37;27.97;99936.03;1087376;54;19950;-85
2023/07/13 11:25:23;;;;;;;;;;;;;;;27.46;27.93;99929.03;1091419;31;20958;-87
2023/07/13 11:26:40;;;;;;;;;;;;;;;27.19;27.96;99931.72;1086892;47;20063;-87
2023/07/13 11:27:44;;;;;;;;;;;;;;;27.43;27.65;99935.03;1086850;47;19938;-88
2023/07/13 11:28:49;;;;;;;;;;;;;;;27.40;27.66;99930.00;1086792;47;21162;-84
2023/07/13 11:29:52;;;;;;;;;;;;;;;27.37;27.74;99922.31;1087261;47;19962;-88
2023/07/13 11:31:21;;;;;;;;;;;;;;;27.35;27.77;99928.03;1087450;39;20824;-85
2023/07/13 11:32:23;;;;;;;;;;;;;;;27.18;27.36;99930.91;1087118;54;19942;-86
2023/07/13 11:33:30;;;;;;;;;;;;;;;27.33;27.04;99926.66;1087298;54;20665;-86
2023/07/13 11:34:33;;;;;;;;;;;;;;;27.48;26.86;99924.09;1087309;54;19967;-90
2023/07/13 11:35:38;;;;;;;;;;;;;;;27.64;26.86;99930.53;1087046;47;19950;-86
2023/07/13 11:36:42;;;;;;;;;;;;;;;27.58;26.88;99925.28;1086815;51;19938;-87
2023/07/13 11:37:47;;;;;;;;;;;;;;;27.26;27.25;99918.63;1086814;47;20960;-86